메인 페이지
METAR-TAF:

METAR-TAF

공항 :

벤구리온 국제공항

텔아비브 / 벤구리온, 이스라엘

위도: 32-00N, 경도: 034-54E, 고도: 40m

현재 날씨관측

예보는 24분 전, 21:50시(UTC)에 발표되었습니다.
여러 방향의 바람 3kt
온도 25°C
습도 79%
기압 1009 hPa
시정 10km 이상
고도 1900ft 상공 구름 많음

METAR: LLBG 202150Z VRB03KT 9999 BKN019 25/21 Q1009 NOSIG

시각: 01:14 (22:14 UTC)

예보

예보는 5 시간 1분 전, 17:13시(UTC)에 발표되었습니다.
예보 대상 시간: 20일 18시부터 21일 18시까지 (UTC)
여러 방향의 바람 4kt
시정 10km 이상
고도 2000ft 상공 구름 조금
확률 40%
21일 00시부터 21일 05시까지 (UTC)
남동4kt
고도 1500ft 상공 구름 보통
전환 중
21일 08시부터 21일 10시까지 (UTC)
10kt
시정 10km 이상
1500m 미만 상공 구름 및 적란운 없음
전환 중
21일 15시부터 21일 17시까지 (UTC)
여러 방향의 바람 4kt
시정 10km 이상
고도 2000ft 상공 구름 보통

TAF: LLBG 201713Z 2018/2118 VRB04KT 9999 FEW020 PROB40 2100/2105 14004KT SCT015 BECMG 2108/2110 28010KT CAVOK BECMG 2115/2117 VRB04KT 9999 SCT020 TX31/2112Z TN22/2103Z

4,000개 이상의 공항 관측 자료 및 예보 (METAR 및 TAF 보고).

지도상에서 검색 가능한 기상관측소가 노란 점과 빨간 점으로 표시되어 있습니다.

기상관측소 명을 보려면 표시 위로 마우스를 이동하세요.

날씨 관측과 예보를 보려면 클릭하세요.

지도 변경 : 확대하려면 엑스 표시가 있는 녹색 버튼, 축소하려면 빼기 표시가 있는 녹색 버튼, 다음 페이지의 지도를 보려면 녹색 화살표를 클릭하세요.


METAR-TAF: